sensor_id;sensor_type;location;lat;lon;timestamp;pressure;altitude;pressure_sealevel;temperature;humidity
52839;BME280;39219;53.678;9.856;2023-04-20T00:02:06;77722.56;;;-147.77;36.64
52839;BME280;39219;53.678;9.856;2023-04-20T00:04:33;77720.53;;;-147.77;37.12
52839;BME280;39219;53.678;9.856;2023-04-20T00:07:02;77734.69;;;-147.77;37.20
52839;BME280;39219;53.678;9.856;2023-04-20T00:09:28;77734.69;;;-147.77;37.50
52839;BME280;39219;53.678;9.856;2023-04-20T00:11:56;77736.72;;;-147.77;37.44
52839;BME280;39219;53.678;9.856;2023-04-20T00:14:22;77734.69;;;-147.77;37.44
52839;BME280;39219;53.678;9.856;2023-04-20T00:16:48;77738.75;;;-147.77;37.62
52839;BME280;39219;53.678;9.856;2023-04-20T00:19:15;77726.59;;;-147.77;37.90
52839;BME280;39219;53.678;9.856;2023-04-20T00:21:42;77740.75;;;-147.77;37.86
52839;BME280;39219;53.678;9.856;2023-04-20T00:24:09;77742.78;;;-147.77;38.05
52839;BME280;39219;53.678;9.856;2023-04-20T00:26:36;77744.81;;;-147.77;38.32
52839;BME280;39219;53.678;9.856;2023-04-20T00:29:02;77748.84;;;-147.77;38.54
52839;BME280;39219;53.678;9.856;2023-04-20T00:31:30;77758.97;;;-147.77;38.68
52839;BME280;39219;53.678;9.856;2023-04-20T00:33:57;77756.97;;;-147.77;38.98
52839;BME280;39219;53.678;9.856;2023-04-20T00:36:23;77750.88;;;-147.77;39.12
52839;BME280;39219;53.678;9.856;2023-04-20T00:38:51;77756.97;;;-147.77;39.14
52839;BME280;39219;53.678;9.856;2023-04-20T00:41:19;77748.84;;;-147.77;39.55
52839;BME280;39219;53.678;9.856;2023-04-20T00:43:49;77763.03;;;-147.77;39.83
52839;BME280;39219;53.678;9.856;2023-04-20T00:46:16;77765.06;;;-147.77;40.16
52839;BME280;39219;53.678;9.856;2023-04-20T00:48:43;77777.19;;;-147.77;41.03
52839;BME280;39219;53.678;9.856;2023-04-20T00:51:09;77809.56;;;-147.77;41.67
52839;BME280;39219;53.678;9.856;2023-04-20T00:53:36;77815.63;;;-147.77;42.83
52839;BME280;39219;53.678;9.856;2023-04-20T00:56:03;77862.19;;;-147.77;44.70
52839;BME280;39219;53.678;9.856;2023-04-20T00:58:32;77864.19;;;-147.77;45.50
52839;BME280;39219;53.678;9.856;2023-04-20T01:00:59;77856.09;;;-147.77;45.39
52839;BME280;39219;53.678;9.856;2023-04-20T01:03:25;77843.97;;;-147.77;45.91
52839;BME280;39219;53.678;9.856;2023-04-20T01:05:51;77819.69;;;-147.77;45.04
52839;BME280;39219;53.678;9.856;2023-04-20T01:08:18;77819.69;;;-147.77;44.83
52839;BME280;39219;53.678;9.856;2023-04-20T01:10:44;77809.56;;;-147.77;44.76
52839;BME280;39219;53.678;9.856;2023-04-20T01:13:11;77799.44;;;-147.77;44.43
52839;BME280;39219;53.678;9.856;2023-04-20T01:15:39;77805.53;;;-147.77;44.94
52839;BME280;39219;53.678;9.856;2023-04-20T01:18:05;77801.47;;;-147.77;45.13
52839;BME280;39219;53.678;9.856;2023-04-20T01:20:32;77807.53;;;-147.77;45.42
52839;BME280;39219;53.678;9.856;2023-04-20T01:23:00;77813.63;;;-147.77;45.73
52839;BME280;39219;53.678;9.856;2023-04-20T01:25:26;77825.75;;;-147.77;46.79
52839;BME280;39219;53.678;9.856;2023-04-20T01:27:53;77843.97;;;-147.77;47.77
52839;BME280;39219;53.678;9.856;2023-04-20T01:30:20;77846.00;;;-147.77;48.85
52839;BME280;39219;53.678;9.856;2023-04-20T01:32:46;77854.09;;;-147.77;49.09
52839;BME280;39219;53.678;9.856;2023-04-20T01:35:13;77858.13;;;-147.77;49.90
52839;BME280;39219;53.678;9.856;2023-04-20T01:37:40;77858.13;;;-147.77;50.04
52839;BME280;39219;53.678;9.856;2023-04-20T01:40:09;77843.97;;;-147.77;49.66
52839;BME280;39219;53.678;9.856;2023-04-20T01:42:37;77848.00;;;-147.77;49.99
52839;BME280;39219;53.678;9.856;2023-04-20T01:45:04;77852.06;;;-147.77;49.48
52839;BME280;39219;53.678;9.856;2023-04-20T01:47:31;77852.06;;;-147.77;49.41
52839;BME280;39219;53.678;9.856;2023-04-20T01:49:58;77848.00;;;-147.77;49.17
52839;BME280;39219;53.678;9.856;2023-04-20T01:52:24;77858.13;;;-147.77;49.24
52839;BME280;39219;53.678;9.856;2023-04-20T01:54:51;77835.88;;;-147.77;49.32
52839;BME280;39219;53.678;9.856;2023-04-20T01:57:18;77854.09;;;-147.77;49.99
52839;BME280;39219;53.678;9.856;2023-04-20T01:59:45;77876.34;;;-147.77;51.01
52839;BME280;39219;53.678;9.856;2023-04-20T02:02:11;77884.44;;;-147.77;51.67
52839;BME280;39219;53.678;9.856;2023-04-20T02:04:38;77888.47;;;-147.77;52.36
52839;BME280;39219;53.678;9.856;2023-04-20T02:07:04;77900.63;;;-147.77;53.88
52839;BME280;39219;53.678;9.856;2023-04-20T02:09:31;77924.91;;;-147.77;55.29
52839;BME280;39219;53.678;9.856;2023-04-20T02:11:57;77941.09;;;-147.77;58.18
52839;BME280;39219;53.678;9.856;2023-04-20T02:14:25;77961.34;;;-147.77;59.27
52839;BME280;39219;53.678;9.856;2023-04-20T02:16:52;77971.44;;;-147.77;60.13
52839;BME280;39219;53.678;9.856;2023-04-20T02:19:18;77965.38;;;-147.77;60.35
52839;BME280;39219;53.678;9.856;2023-04-20T02:21:45;77961.34;;;-147.77;60.51
52839;BME280;39219;53.678;9.856;2023-04-20T02:24:11;77943.13;;;-147.77;61.18
52839;BME280;39219;53.678;9.856;2023-04-20T02:26:38;77937.06;;;-147.77;60.98
52839;BME280;39219;53.678;9.856;2023-04-20T02:29:04;77924.91;;;-147.77;61.65
52839;BME280;39219;53.678;9.856;2023-04-20T02:31:32;77928.97;;;-147.77;62.33
52839;BME280;39219;53.678;9.856;2023-04-20T02:33:58;77930.97;;;-147.77;63.01
52839;BME280;39219;53.678;9.856;2023-04-20T02:36:25;77926.94;;;-147.77;63.07
52839;BME280;39219;53.678;9.856;2023-04-20T02:38:52;77926.94;;;-147.77;62.98
52839;BME280;39219;53.678;9.856;2023-04-20T02:41:18;77933.00;;;-147.77;63.35
52839;BME280;39219;53.678;9.856;2023-04-20T02:43:45;77926.94;;;-147.77;62.73
52839;BME280;39219;53.678;9.856;2023-04-20T02:46:11;77920.88;;;-147.77;63.35
52839;BME280;39219;53.678;9.856;2023-04-20T02:48:39;77906.69;;;-147.77;63.35
52839;BME280;39219;53.678;9.856;2023-04-20T02:51:06;77904.69;;;-147.77;63.38
52839;BME280;39219;53.678;9.856;2023-04-20T02:53:32;77908.72;;;-147.77;63.03
52839;BME280;39219;53.678;9.856;2023-04-20T02:55:58;77898.59;;;-147.77;63.38
52839;BME280;39219;53.678;9.856;2023-04-20T02:58:25;77898.59;;;-147.77;63.64
52839;BME280;39219;53.678;9.856;2023-04-20T03:00:57;77896.56;;;-147.77;63.79
52839;BME280;39219;53.678;9.856;2023-04-20T03:03:24;77912.78;;;-147.77;63.96
52839;BME280;39219;53.678;9.856;2023-04-20T03:05:52;77908.72;;;-147.77;63.92
52839;BME280;39219;53.678;9.856;2023-04-20T03:08:19;77912.78;;;-147.77;64.40
52839;BME280;39219;53.678;9.856;2023-04-20T03:10:46;77908.72;;;-147.77;64.41
52839;BME280;39219;53.678;9.856;2023-04-20T03:13:12;77900.63;;;-147.77;64.46
52839;BME280;39219;53.678;9.856;2023-04-20T03:15:39;77908.72;;;-147.77;64.79
52839;BME280;39219;53.678;9.856;2023-04-20T03:18:05;77908.72;;;-147.77;65.12
52839;BME280;39219;53.678;9.856;2023-04-20T03:20:32;77908.72;;;-147.77;65.25
52839;BME280;39219;53.678;9.856;2023-04-20T03:23:00;77912.78;;;-147.77;65.28
52839;BME280;39219;53.678;9.856;2023-04-20T03:25:26;77912.78;;;-147.77;65.27
52839;BME280;39219;53.678;9.856;2023-04-20T03:27:53;77910.75;;;-147.77;65.29
52839;BME280;39219;53.678;9.856;2023-04-20T03:30:20;77918.84;;;-147.77;65.49
52839;BME280;39219;53.678;9.856;2023-04-20T03:32:46;77920.88;;;-147.77;65.81
52839;BME280;39219;53.678;9.856;2023-04-20T03:35:13;77916.81;;;-147.77;66.53
52839;BME280;39219;53.678;9.856;2023-04-20T03:37:39;77933.00;;;-147.77;67.24
52839;BME280;39219;53.678;9.856;2023-04-20T03:40:08;77969.44;;;-147.77;68.51
52839;BME280;39219;53.678;9.856;2023-04-20T03:42:35;77981.56;;;-147.77;69.69
52839;BME280;39219;53.678;9.856;2023-04-20T03:45:03;77987.66;;;-147.77;70.68
52839;BME280;39219;53.678;9.856;2023-04-20T03:47:30;77993.72;;;-147.77;72.29
52839;BME280;39219;53.678;9.856;2023-04-20T03:49:56;78005.84;;;-147.77;72.99
52839;BME280;39219;53.678;9.856;2023-04-20T03:52:23;78007.88;;;-147.77;73.82
52839;BME280;39219;53.678;9.856;2023-04-20T03:54:49;78007.88;;;-147.77;74.50
52839;BME280;39219;53.678;9.856;2023-04-20T03:57:17;78001.81;;;-147.77;76.38
52839;BME280;39219;53.678;9.856;2023-04-20T03:59:43;78026.09;;;-147.77;78.05
52839;BME280;39219;53.678;9.856;2023-04-20T04:02:10;78028.13;;;-147.77;79.87
52839;BME280;39219;53.678;9.856;2023-04-20T04:04:37;78044.31;;;-147.77;79.53
52839;BME280;39219;53.678;9.856;2023-04-20T04:07:04;78046.31;;;-147.77;80.38
52839;BME280;39219;53.678;9.856;2023-04-20T04:09:31;78044.31;;;-147.77;80.95
52839;BME280;39219;53.678;9.856;2023-04-20T04:11:58;78038.22;;;-147.77;81.75
52839;BME280;39219;53.678;9.856;2023-04-20T04:14:27;78034.19;;;-147.77;82.30
52839;BME280;39219;53.678;9.856;2023-04-20T04:16:54;78044.31;;;-147.77;82.55
52839;BME280;39219;53.678;9.856;2023-04-20T04:19:20;78044.31;;;-147.77;83.00
52839;BME280;39219;53.678;9.856;2023-04-20T04:21:47;78034.19;;;-147.77;83.27
52839;BME280;39219;53.678;9.856;2023-04-20T04:24:13;78036.22;;;-147.77;83.70
52839;BME280;39219;53.678;9.856;2023-04-20T04:26:40;78028.13;;;-147.77;84.25
52839;BME280;39219;53.678;9.856;2023-04-20T04:29:06;78026.09;;;-147.77;84.27
52839;BME280;39219;53.678;9.856;2023-04-20T04:31:34;78028.13;;;-147.77;84.40
52839;BME280;39219;53.678;9.856;2023-04-20T04:34:01;78030.13;;;-147.77;85.03
52839;BME280;39219;53.678;9.856;2023-04-20T04:36:27;78026.09;;;-147.77;85.17
52839;BME280;39219;53.678;9.856;2023-04-20T04:38:54;78024.06;;;-147.77;85.49
52839;BME280;39219;53.678;9.856;2023-04-20T04:41:20;78024.06;;;-147.77;85.29
52839;BME280;39219;53.678;9.856;2023-04-20T04:43:47;78026.09;;;-147.77;85.90
52839;BME280;39219;53.678;9.856;2023-04-20T04:46:14;78022.03;;;-147.77;85.92
52839;BME280;39219;53.678;9.856;2023-04-20T04:48:41;78020.03;;;-147.77;85.94
52839;BME280;39219;53.678;9.856;2023-04-20T04:51:10;78026.09;;;-147.77;85.31
52839;BME280;39219;53.678;9.856;2023-04-20T04:53:37;78026.09;;;-147.77;85.78
52839;BME280;39219;53.678;9.856;2023-04-20T04:56:04;78028.13;;;-147.77;85.42
52839;BME280;39219;53.678;9.856;2023-04-20T04:58:31;78030.13;;;-147.77;85.67
52839;BME280;39219;53.678;9.856;2023-04-20T05:00:57;78024.06;;;-147.77;85.80
52839;BME280;39219;53.678;9.856;2023-04-20T05:03:23;78018.00;;;-147.77;85.29
52839;BME280;39219;53.678;9.856;2023-04-20T05:05:51;78018.00;;;-147.77;86.08
52839;BME280;39219;53.678;9.856;2023-04-20T05:08:18;78015.97;;;-147.77;86.05
52839;BME280;39219;53.678;9.856;2023-04-20T05:10:44;78011.94;;;-147.77;86.10
52839;BME280;39219;53.678;9.856;2023-04-20T05:13:11;78013.94;;;-147.77;86.22
52839;BME280;39219;53.678;9.856;2023-04-20T05:15:37;78018.00;;;-147.77;86.27
52839;BME280;39219;53.678;9.856;2023-04-20T05:18:04;78018.00;;;-147.77;86.54
52839;BME280;39219;53.678;9.856;2023-04-20T05:20:30;78020.03;;;-147.77;86.57
52839;BME280;39219;53.678;9.856;2023-04-20T05:22:58;78009.91;;;-147.77;86.67
52839;BME280;39219;53.678;9.856;2023-04-20T05:25:25;78022.03;;;-147.77;86.64
52839;BME280;39219;53.678;9.856;2023-04-20T05:27:51;78013.94;;;-147.77;86.75
52839;BME280;39219;53.678;9.856;2023-04-20T05:30:18;78011.94;;;-147.77;86.93
52839;BME280;39219;53.678;9.856;2023-04-20T05:32:44;78013.94;;;-147.77;87.17
52839;BME280;39219;53.678;9.856;2023-04-20T05:35:10;78020.03;;;-147.77;87.28
52839;BME280;39219;53.678;9.856;2023-04-20T05:37:38;78024.06;;;-147.77;87.32
52839;BME280;39219;53.678;9.856;2023-04-20T05:40:07;78020.03;;;-147.77;87.55
52839;BME280;39219;53.678;9.856;2023-04-20T05:42:35;78022.03;;;-147.77;87.82
52839;BME280;39219;53.678;9.856;2023-04-20T05:45:01;78011.94;;;-147.77;88.20
52839;BME280;39219;53.678;9.856;2023-04-20T05:47:29;78003.84;;;-147.77;88.04
52839;BME280;39219;53.678;9.856;2023-04-20T05:49:56;78020.03;;;-147.77;88.07
52839;BME280;39219;53.678;9.856;2023-04-20T05:52:22;78011.94;;;-147.77;88.34
52839;BME280;39219;53.678;9.856;2023-04-20T05:54:49;78013.94;;;-147.77;88.46
52839;BME280;39219;53.678;9.856;2023-04-20T05:57:16;78022.03;;;-147.77;88.98
52839;BME280;39219;53.678;9.856;2023-04-20T05:59:43;78015.97;;;-147.77;89.18
52839;BME280;39219;53.678;9.856;2023-04-20T06:02:10;78013.94;;;-147.77;89.09
52839;BME280;39219;53.678;9.856;2023-04-20T06:04:37;78005.84;;;-147.77;89.46
52839;BME280;39219;53.678;9.856;2023-04-20T06:07:03;78003.84;;;-147.77;89.40
52839;BME280;39219;53.678;9.856;2023-04-20T06:09:30;78005.84;;;-147.77;89.43
52839;BME280;39219;53.678;9.856;2023-04-20T06:11:56;78005.84;;;-147.77;89.61
52839;BME280;39219;53.678;9.856;2023-04-20T06:14:25;78011.94;;;-147.77;89.73
52839;BME280;39219;53.678;9.856;2023-04-20T06:16:52;78009.91;;;-147.77;90.12
52839;BME280;39219;53.678;9.856;2023-04-20T06:19:18;78005.84;;;-147.77;89.88
52839;BME280;39219;53.678;9.856;2023-04-20T06:21:45;78003.84;;;-147.77;90.33
52839;BME280;39219;53.678;9.856;2023-04-20T06:24:11;78001.81;;;-147.77;90.76
52839;BME280;39219;53.678;9.856;2023-04-20T06:26:38;78005.84;;;-147.77;90.88
52839;BME280;39219;53.678;9.856;2023-04-20T06:29:04;78013.94;;;-147.77;91.20
52839;BME280;39219;53.678;9.856;2023-04-20T06:31:32;78005.84;;;-147.77;91.17
52839;BME280;39219;53.678;9.856;2023-04-20T06:33:58;78011.94;;;-147.77;91.83
52839;BME280;39219;53.678;9.856;2023-04-20T06:36:25;78009.91;;;-147.77;91.55
52839;BME280;39219;53.678;9.856;2023-04-20T06:38:51;78003.84;;;-147.77;92.11
52839;BME280;39219;53.678;9.856;2023-04-20T06:41:19;77999.78;;;-147.77;92.05
52839;BME280;39219;53.678;9.856;2023-04-20T06:43:45;78009.91;;;-147.77;92.45
52839;BME280;39219;53.678;9.856;2023-04-20T06:46:12;78005.84;;;-147.77;92.94
52839;BME280;39219;53.678;9.856;2023-04-20T06:48:39;77997.75;;;-147.77;92.89
52839;BME280;39219;53.678;9.856;2023-04-20T06:51:06;77981.56;;;-147.77;92.93
52839;BME280;39219;53.678;9.856;2023-04-20T06:53:32;77991.69;;;-147.77;92.84
52839;BME280;39219;53.678;9.856;2023-04-20T06:55:59;77993.72;;;-147.77;92.97
52839;BME280;39219;53.678;9.856;2023-04-20T06:58:25;78007.88;;;-147.77;93.38
52839;BME280;39219;53.678;9.856;2023-04-20T07:00:52;78001.81;;;-147.77;94.03
52839;BME280;39219;53.678;9.856;2023-04-20T07:03:18;78001.81;;;-147.77;94.41
52839;BME280;39219;53.678;9.856;2023-04-20T07:05:46;78009.91;;;-147.77;94.05
52839;BME280;39219;53.678;9.856;2023-04-20T07:08:12;78007.88;;;-147.77;94.15
52839;BME280;39219;53.678;9.856;2023-04-20T07:10:40;78001.81;;;-147.77;94.73
52839;BME280;39219;53.678;9.856;2023-04-20T07:13:06;77993.72;;;-147.77;94.30
52839;BME280;39219;53.678;9.856;2023-04-20T07:15:32;77985.63;;;-147.77;94.52
52839;BME280;39219;53.678;9.856;2023-04-20T07:17:59;77979.53;;;-147.77;94.22
52839;BME280;39219;53.678;9.856;2023-04-20T07:20:25;77985.63;;;-147.77;93.91
52839;BME280;39219;53.678;9.856;2023-04-20T07:22:53;77969.44;;;-147.77;93.79
52839;BME280;39219;53.678;9.856;2023-04-20T07:25:20;77981.56;;;-147.77;93.60
52839;BME280;39219;53.678;9.856;2023-04-20T07:27:47;78001.81;;;-147.77;93.74
52839;BME280;39219;53.678;9.856;2023-04-20T07:30:14;78001.81;;;-147.77;93.62
52839;BME280;39219;53.678;9.856;2023-04-20T07:32:40;78007.88;;;-147.77;93.91
52839;BME280;39219;53.678;9.856;2023-04-20T07:35:07;77995.72;;;-147.77;93.90
52839;BME280;39219;53.678;9.856;2023-04-20T07:37:34;77991.69;;;-147.77;93.64
52839;BME280;39219;53.678;9.856;2023-04-20T07:40:02;77987.66;;;-147.77;93.85
52839;BME280;39219;53.678;9.856;2023-04-20T07:42:31;77971.44;;;-147.77;93.48
52839;BME280;39219;53.678;9.856;2023-04-20T07:44:57;77953.25;;;-147.77;93.78
52839;BME280;39219;53.678;9.856;2023-04-20T07:47:24;77977.53;;;-147.77;92.68
52839;BME280;39219;53.678;9.856;2023-04-20T07:49:50;77983.59;;;-147.77;92.67
52839;BME280;39219;53.678;9.856;2023-04-20T07:52:17;77975.50;;;-147.77;92.54
52839;BME280;39219;53.678;9.856;2023-04-20T07:54:44;77969.44;;;-147.77;92.57
52839;BME280;39219;53.678;9.856;2023-04-20T07:57:12;77977.53;;;-147.77;92.48
52839;BME280;39219;53.678;9.856;2023-04-20T07:59:39;77979.53;;;-147.77;92.99
52839;BME280;39219;53.678;9.856;2023-04-20T08:02:06;77963.34;;;-147.77;92.59
52839;BME280;39219;53.678;9.856;2023-04-20T08:04:34;77979.53;;;-147.77;92.46
52839;BME280;39219;53.678;9.856;2023-04-20T08:07:01;77989.66;;;-147.77;92.06
52839;BME280;39219;53.678;9.856;2023-04-20T08:09:28;77995.72;;;-147.77;92.53
52839;BME280;39219;53.678;9.856;2023-04-20T08:11:54;77991.69;;;-147.77;92.93
52839;BME280;39219;53.678;9.856;2023-04-20T08:14:22;77997.75;;;-147.77;93.73
52839;BME280;39219;53.678;9.856;2023-04-20T08:16:48;77987.66;;;-147.77;94.01
52839;BME280;39219;53.678;9.856;2023-04-20T08:19:15;77983.59;;;-147.77;93.83
52839;BME280;39219;53.678;9.856;2023-04-20T08:21:42;77981.56;;;-147.77;93.28
52839;BME280;39219;53.678;9.856;2023-04-20T08:24:08;77987.66;;;-147.77;93.41
52839;BME280;39219;53.678;9.856;2023-04-20T08:26:35;77997.75;;;-147.77;93.59
52839;BME280;39219;53.678;9.856;2023-04-20T08:29:02;78020.03;;;-147.77;94.12
52839;BME280;39219;53.678;9.856;2023-04-20T08:31:31;78028.13;;;-147.77;94.21
52839;BME280;39219;53.678;9.856;2023-04-20T08:33:57;78038.22;;;-147.77;95.00
52839;BME280;39219;53.678;9.856;2023-04-20T08:36:24;78042.28;;;-147.77;95.42
52839;BME280;39219;53.678;9.856;2023-04-20T08:38:53;78040.25;;;-147.77;95.84
52839;BME280;39219;53.678;9.856;2023-04-20T08:41:20;78042.28;;;-147.77;96.24
52839;BME280;39219;53.678;9.856;2023-04-20T08:43:46;78050.38;;;-147.77;96.63
52839;BME280;39219;53.678;9.856;2023-04-20T08:46:14;78048.34;;;-147.77;96.72
52839;BME280;39219;53.678;9.856;2023-04-20T08:48:45;78042.28;;;-147.77;97.11
52839;BME280;39219;53.678;9.856;2023-04-20T08:51:13;78034.19;;;-147.77;97.22
52839;BME280;39219;53.678;9.856;2023-04-20T08:53:40;78028.13;;;-147.77;97.55
52839;BME280;39219;53.678;9.856;2023-04-20T08:56:07;78024.06;;;-147.77;97.33
52839;BME280;39219;53.678;9.856;2023-04-20T08:58:33;78018.00;;;-147.77;97.62
52839;BME280;39219;53.678;9.856;2023-04-20T09:01:00;78018.00;;;-147.77;97.57
52839;BME280;39219;53.678;9.856;2023-04-20T09:03:31;78020.03;;;-147.77;97.88
52839;BME280;39219;53.678;9.856;2023-04-20T09:05:59;78005.84;;;-147.77;98.20
52839;BME280;39219;53.678;9.856;2023-04-20T09:08:33;77981.56;;;-147.77;98.20
52839;BME280;39219;53.678;9.856;2023-04-20T09:10:59;77969.44;;;-147.77;98.01
52839;BME280;39219;53.678;9.856;2023-04-20T09:13:26;77965.38;;;-147.77;97.40
52839;BME280;39219;53.678;9.856;2023-04-20T09:15:53;77965.38;;;-147.77;97.66
52839;BME280;39219;53.678;9.856;2023-04-20T09:18:19;77969.44;;;-147.77;97.16
52839;BME280;39219;53.678;9.856;2023-04-20T09:20:47;77951.22;;;-147.77;98.38
52839;BME280;39219;53.678;9.856;2023-04-20T09:23:16;77890.50;;;-147.77;98.56
52839;BME280;39219;53.678;9.856;2023-04-20T09:25:45;77854.09;;;-147.77;95.99
52839;BME280;39219;53.678;9.856;2023-04-20T09:28:12;77809.56;;;-147.77;96.12
52839;BME280;39219;53.678;9.856;2023-04-20T09:30:41;77771.13;;;-147.77;94.04
52839;BME280;39219;53.678;9.856;2023-04-20T09:33:08;77716.47;;;-147.77;93.40
52839;BME280;39219;53.678;9.856;2023-04-20T09:35:36;77726.59;;;-147.77;90.28
52839;BME280;39219;53.678;9.856;2023-04-20T09:38:04;77736.72;;;-147.77;90.00
52839;BME280;39219;53.678;9.856;2023-04-20T09:40:33;77779.22;;;-147.77;89.64
52839;BME280;39219;53.678;9.856;2023-04-20T09:43:03;77769.09;;;-147.77;90.16
52839;BME280;39219;53.678;9.856;2023-04-20T09:45:33;77787.31;;;-147.77;89.94
52839;BME280;39219;53.678;9.856;2023-04-20T09:48:00;77771.13;;;-147.77;90.51
52839;BME280;39219;53.678;9.856;2023-04-20T09:50:30;77783.25;;;-147.77;89.05
52839;BME280;39219;53.678;9.856;2023-04-20T09:52:59;77781.25;;;-147.77;89.51
52839;BME280;39219;53.678;9.856;2023-04-20T09:55:26;77805.53;;;-147.77;89.46
52839;BME280;39219;53.678;9.856;2023-04-20T09:57:55;77803.50;;;-147.77;90.09
52839;BME280;39219;53.678;9.856;2023-04-20T10:00:23;77817.66;;;-147.77;90.27
52839;BME280;39219;53.678;9.856;2023-04-20T10:02:50;77819.69;;;-147.77;90.64
52839;BME280;39219;53.678;9.856;2023-04-20T10:05:16;77815.63;;;-147.77;91.25
52839;BME280;39219;53.678;9.856;2023-04-20T10:07:43;77819.69;;;-147.77;90.88
52839;BME280;39219;53.678;9.856;2023-04-20T10:10:11;77809.56;;;-147.77;91.60
52839;BME280;39219;53.678;9.856;2023-04-20T10:12:48;77805.53;;;-147.77;91.49
52839;BME280;39219;53.678;9.856;2023-04-20T10:15:17;77815.63;;;-147.77;91.96
52839;BME280;39219;53.678;9.856;2023-04-20T10:17:43;77793.38;;;-147.77;92.63
52839;BME280;39219;53.678;9.856;2023-04-20T10:20:21;77769.09;;;-147.77;92.33
52839;BME280;39219;53.678;9.856;2023-04-20T10:22:50;77728.63;;;-147.77;91.12
52839;BME280;39219;53.678;9.856;2023-04-20T10:25:18;77688.16;;;-147.77;90.41
52839;BME280;39219;53.678;9.856;2023-04-20T10:27:52;77645.66;;;-147.77;87.15
52839;BME280;39219;53.678;9.856;2023-04-20T10:30:21;77609.25;;;-147.77;84.93
52839;BME280;39219;53.678;9.856;2023-04-20T10:32:48;77576.88;;;-147.77;83.72
52839;BME280;39219;53.678;9.856;2023-04-20T10:35:14;77568.78;;;-147.77;84.47
52839;BME280;39219;53.678;9.856;2023-04-20T10:37:47;77597.09;;;-147.77;83.00
52839;BME280;39219;53.678;9.856;2023-04-20T10:40:14;77625.44;;;-147.77;84.02
52839;BME280;39219;53.678;9.856;2023-04-20T10:42:41;77609.25;;;-147.77;84.44
52839;BME280;39219;53.678;9.856;2023-04-20T10:45:08;77635.53;;;-147.77;82.71
52839;BME280;39219;53.678;9.856;2023-04-20T10:47:37;77682.09;;;-147.77;83.44
52839;BME280;39219;53.678;9.856;2023-04-20T10:50:06;77690.19;;;-147.77;84.98
52839;BME280;39219;53.678;9.856;2023-04-20T10:52:33;77686.13;;;-147.77;85.20
52839;BME280;39219;53.678;9.856;2023-04-20T10:55:01;77667.91;;;-147.77;85.73
52839;BME280;39219;53.678;9.856;2023-04-20T10:57:28;77651.72;;;-147.77;85.19
52839;BME280;39219;53.678;9.856;2023-04-20T10:59:54;77657.81;;;-147.77;84.18
52839;BME280;39219;53.678;9.856;2023-04-20T11:02:20;77657.81;;;-147.77;82.99
52839;BME280;39219;53.678;9.856;2023-04-20T11:04:48;77663.88;;;-147.77;84.60
52839;BME280;39219;53.678;9.856;2023-04-20T11:07:15;77674.00;;;-147.77;84.43
52839;BME280;39219;53.678;9.856;2023-04-20T11:09:42;77686.13;;;-147.77;85.58
52839;BME280;39219;53.678;9.856;2023-04-20T11:12:09;77686.13;;;-147.77;84.95
52839;BME280;39219;53.678;9.856;2023-04-20T11:14:38;77690.19;;;-147.77;85.55
52839;BME280;39219;53.678;9.856;2023-04-20T11:17:15;77688.16;;;-147.77;85.78
52839;BME280;39219;53.678;9.856;2023-04-20T11:19:42;77661.84;;;-147.77;85.12
52839;BME280;39219;53.678;9.856;2023-04-20T11:22:19;77605.19;;;-147.77;85.17
52839;BME280;39219;53.678;9.856;2023-04-20T11:24:46;77572.81;;;-147.77;82.55
52839;BME280;39219;53.678;9.856;2023-04-20T11:27:18;77548.53;;;-147.77;81.89
52839;BME280;39219;53.678;9.856;2023-04-20T11:29:45;77526.28;;;-147.77;80.73
52839;BME280;39219;53.678;9.856;2023-04-20T11:32:20;77471.66;;;-147.77;79.28
52839;BME280;39219;53.678;9.856;2023-04-20T11:34:57;77429.16;;;-147.77;77.91
52839;BME280;39219;53.678;9.856;2023-04-20T11:37:25;77406.91;;;-147.77;77.12
52839;BME280;39219;53.678;9.856;2023-04-20T11:39:59;77406.91;;;-147.77;78.00
52839;BME280;39219;53.678;9.856;2023-04-20T11:42:26;77449.41;;;-147.77;76.37
52839;BME280;39219;53.678;9.856;2023-04-20T11:44:52;77469.63;;;-147.77;78.19
52839;BME280;39219;53.678;9.856;2023-04-20T11:47:19;77463.56;;;-147.77;77.43
52839;BME280;39219;53.678;9.856;2023-04-20T11:49:45;77473.66;;;-147.77;78.11
52839;BME280;39219;53.678;9.856;2023-04-20T11:52:12;77522.22;;;-147.77;78.77
52839;BME280;39219;53.678;9.856;2023-04-20T11:54:40;77536.41;;;-147.77;78.40
52839;BME280;39219;53.678;9.856;2023-04-20T11:57:06;77534.38;;;-147.77;79.33
52839;BME280;39219;53.678;9.856;2023-04-20T11:59:33;77542.47;;;-147.77;79.55
52839;BME280;39219;53.678;9.856;2023-04-20T12:01:59;77540.44;;;-147.77;80.30
52839;BME280;39219;53.678;9.856;2023-04-20T12:04:28;77550.56;;;-147.77;80.48
52839;BME280;39219;53.678;9.856;2023-04-20T12:06:55;77560.69;;;-147.77;80.97
52839;BME280;39219;53.678;9.856;2023-04-20T12:09:22;77564.72;;;-147.77;81.36
52839;BME280;39219;53.678;9.856;2023-04-20T12:11:50;77568.78;;;-147.77;81.84
52839;BME280;39219;53.678;9.856;2023-04-20T12:14:17;77582.94;;;-147.77;80.76
52839;BME280;39219;53.678;9.856;2023-04-20T12:16:43;77609.25;;;-147.77;81.75
52839;BME280;39219;53.678;9.856;2023-04-20T12:19:10;77601.16;;;-147.77;82.34
52839;BME280;39219;53.678;9.856;2023-04-20T12:21:37;77603.16;;;-147.77;82.75
52839;BME280;39219;53.678;9.856;2023-04-20T12:24:04;77623.41;;;-147.77;82.75
52839;BME280;39219;53.678;9.856;2023-04-20T12:26:30;77627.44;;;-147.77;83.65
52839;BME280;39219;53.678;9.856;2023-04-20T12:29:00;77617.34;;;-147.77;83.02
52839;BME280;39219;53.678;9.856;2023-04-20T12:31:26;77633.53;;;-147.77;82.99
52839;BME280;39219;53.678;9.856;2023-04-20T12:33:52;77647.69;;;-147.77;83.63
52839;BME280;39219;53.678;9.856;2023-04-20T12:36:19;77649.72;;;-147.77;84.43
52839;BME280;39219;53.678;9.856;2023-04-20T12:38:46;77661.84;;;-147.77;84.28
52839;BME280;39219;53.678;9.856;2023-04-20T12:41:12;77674.00;;;-147.77;85.02